Terminal Aerodrome Forecast
Issued by NWS

Home | Current Version | Previous Version | Text Only | Print | Product List | Glossary On
Versions: 1 2 3 4 5 6 7 8 9 10 11 12 13 14 15 16 17 18 19 20 21 22 23 24 25 26
000
FTUS41 KBTV 261731
TAFMSS
TAF
KMSS 261731Z 2618/2718 27014G23KT P6SM FEW045
     FM262300 22007KT P6SM SKC
     FM270400 22012G22KT P6SM SCT060
     FM271400 23014G24KT P6SM SCT050=

USA.gov is the U.S. government's official web portal to all federal, state and local government web resources and services.